TimePDT,TemperatureF,Dew PointF,Humidity,Sea Level PressureIn,VisibilityMPH,Wind Direction,Wind SpeedMPH,Gust SpeedMPH,PrecipitationIn,Events,Conditions,WindDirDegrees,DateUTC
12:55 AM,55.0,50.0,83,30.01,8.0,ENE,4.6,-,N/A,,Partly Cloudy,70,2012-11-02 07:55:00
1:55 AM,55.0,50.0,83,30.01,7.0,ENE,3.5,-,N/A,,Clear,60,2012-11-02 08:55:00
2:55 AM,54.0,48.9,83,30.00,7.0,Calm,Calm,-,N/A,,Clear,0,2012-11-02 09:55:00
3:55 AM,54.0,48.9,83,29.99,8.0,ENE,5.8,-,N/A,,Clear,60,2012-11-02 10:55:00
4:55 AM,52.0,48.0,86,30.00,7.0,Calm,Calm,-,N/A,,Clear,0,2012-11-02 11:55:00
5:55 AM,54.0,48.9,83,30.00,7.0,ENE,3.5,-,N/A,,Clear,60,2012-11-02 12:55:00
6:55 AM,53.1,48.0,83,30.00,6.0,NE,6.9,-,N/A,,Haze,50,2012-11-02 13:55:00
7:55 AM,55.0,50.0,83,30.01,4.0,NE,8.1,-,N/A,,Haze,50,2012-11-02 14:55:00
8:55 AM,60.1,52.0,75,30.03,5.0,NNE,3.5,-,N/A,,Haze,20,2012-11-02 15:55:00
9:55 AM,64.0,53.1,67,30.04,6.0,Calm,Calm,-,N/A,,Haze,0,2012-11-02 16:55:00
10:55 AM,66.0,53.1,63,30.04,10.0,WSW,8.1,-,N/A,,Clear,250,2012-11-02 17:55:00
11:55 AM,68.0,54.0,61,30.03,10.0,SW,6.9,-,N/A,,Partly Cloudy,220,2012-11-02 18:55:00
12:55 PM,68.0,53.1,59,30.00,10.0,WSW,3.5,-,N/A,,Partly Cloudy,240,2012-11-02 19:55:00
1:55 PM,69.1,54.0,58,29.97,10.0,SW,6.9,-,N/A,,Clear,220,2012-11-02 20:55:00
2:55 PM,70.0,53.1,55,29.96,10.0,West,10.4,-,N/A,,Clear,260,2012-11-02 21:55:00
3:55 PM,69.1,53.1,57,29.96,10.0,WSW,10.4,-,N/A,,Clear,250,2012-11-02 22:55:00
4:55 PM,66.0,55.0,68,29.96,10.0,WSW,6.9,-,N/A,,Clear,250,2012-11-02 23:55:00
5:55 PM,64.0,55.0,73,29.97,10.0,West,8.1,-,N/A,,Clear,260,2012-11-03 00:55:00
6:55 PM,63.0,55.9,78,29.97,10.0,Calm,Calm,-,N/A,,Clear,0,2012-11-03 01:55:00
7:55 PM,60.1,55.0,83,29.97,10.0,Calm,Calm,-,N/A,,Clear,0,2012-11-03 02:55:00
8:55 PM,60.1,53.1,78,29.98,9.0,Calm,Calm,-,N/A,,Clear,0,2012-11-03 03:55:00
9:55 PM,59.0,53.1,81,29.99,8.0,Calm,Calm,-,N/A,,Clear,0,2012-11-03 04:55:00
10:55 PM,57.9,52.0,81,29.99,9.0,ENE,4.6,-,N/A,,Clear,70,2012-11-03 05:55:00